sensor_id;sensor_type;location;lat;lon;timestamp;P1;durP1;ratioP1;P2;durP2;ratioP2
12968;SDS011;6549;53.128;8.182;2023-09-19T00:00:13;5.45;;;2.15;;
12968;SDS011;6549;53.128;8.182;2023-09-19T00:03:13;6.80;;;2.60;;
12968;SDS011;6549;53.128;8.182;2023-09-19T00:06:14;5.32;;;2.28;;
12968;SDS011;6549;53.128;8.182;2023-09-19T00:09:15;5.70;;;2.42;;
12968;SDS011;6549;53.128;8.182;2023-09-19T00:12:16;6.95;;;2.28;;
12968;SDS011;6549;53.128;8.182;2023-09-19T00:15:16;5.07;;;2.47;;
12968;SDS011;6549;53.128;8.182;2023-09-19T00:18:18;4.93;;;2.40;;
12968;SDS011;6549;53.128;8.182;2023-09-19T00:21:21;5.55;;;2.40;;
12968;SDS011;6549;53.128;8.182;2023-09-19T00:24:22;5.30;;;2.20;;
12968;SDS011;6549;53.128;8.182;2023-09-19T00:27:23;5.40;;;2.03;;
12968;SDS011;6549;53.128;8.182;2023-09-19T00:30:23;4.57;;;1.95;;
12968;SDS011;6549;53.128;8.182;2023-09-19T00:33:24;3.75;;;1.88;;
12968;SDS011;6549;53.128;8.182;2023-09-19T00:36:24;4.78;;;1.80;;
12968;SDS011;6549;53.128;8.182;2023-09-19T00:39:24;4.78;;;2.22;;
12968;SDS011;6549;53.128;8.182;2023-09-19T00:42:25;5.30;;;2.10;;
12968;SDS011;6549;53.128;8.182;2023-09-19T00:45:26;4.40;;;1.90;;
12968;SDS011;6549;53.128;8.182;2023-09-19T00:48:26;5.18;;;1.65;;
12968;SDS011;6549;53.128;8.182;2023-09-19T00:51:28;2.85;;;1.58;;
12968;SDS011;6549;53.128;8.182;2023-09-19T00:54:29;5.60;;;1.85;;
12968;SDS011;6549;53.128;8.182;2023-09-19T00:57:30;4.15;;;1.60;;
12968;SDS011;6549;53.128;8.182;2023-09-19T01:00:33;5.43;;;1.60;;
12968;SDS011;6549;53.128;8.182;2023-09-19T01:03:34;4.45;;;1.48;;
12968;SDS011;6549;53.128;8.182;2023-09-19T01:06:34;3.75;;;1.60;;
12968;SDS011;6549;53.128;8.182;2023-09-19T01:09:36;4.55;;;1.75;;
12968;SDS011;6549;53.128;8.182;2023-09-19T01:15:59;3.67;;;1.60;;
12968;SDS011;6549;53.128;8.182;2023-09-19T01:29:39;4.18;;;1.98;;
12968;SDS011;6549;53.128;8.182;2023-09-19T01:32:44;4.35;;;1.80;;
12968;SDS011;6549;53.128;8.182;2023-09-19T01:35:46;4.32;;;1.40;;
12968;SDS011;6549;53.128;8.182;2023-09-19T01:38:47;4.68;;;1.90;;
12968;SDS011;6549;53.128;8.182;2023-09-19T01:41:54;3.67;;;1.70;;
12968;SDS011;6549;53.128;8.182;2023-09-19T01:45:12;5.28;;;1.90;;
12968;SDS011;6549;53.128;8.182;2023-09-19T01:48:19;3.97;;;1.60;;
12968;SDS011;6549;53.128;8.182;2023-09-19T01:51:46;3.05;;;1.67;;
12968;SDS011;6549;53.128;8.182;2023-09-19T01:55:04;4.30;;;1.67;;
12968;SDS011;6549;53.128;8.182;2023-09-19T01:58:13;4.68;;;1.60;;
12968;SDS011;6549;53.128;8.182;2023-09-19T02:01:19;5.32;;;1.70;;
12968;SDS011;6549;53.128;8.182;2023-09-19T02:04:22;2.85;;;1.50;;
12968;SDS011;6549;53.128;8.182;2023-09-19T02:07:22;3.88;;;1.60;;
12968;SDS011;6549;53.128;8.182;2023-09-19T02:10:22;3.92;;;1.30;;
12968;SDS011;6549;53.128;8.182;2023-09-19T02:13:23;2.50;;;1.40;;
12968;SDS011;6549;53.128;8.182;2023-09-19T02:16:28;3.53;;;1.42;;
12968;SDS011;6549;53.128;8.182;2023-09-19T02:19:28;4.43;;;1.70;;
12968;SDS011;6549;53.128;8.182;2023-09-19T02:22:29;4.38;;;1.63;;
12968;SDS011;6549;53.128;8.182;2023-09-19T02:25:30;4.53;;;1.63;;
12968;SDS011;6549;53.128;8.182;2023-09-19T02:28:32;5.78;;;1.60;;
12968;SDS011;6549;53.128;8.182;2023-09-19T02:31:32;3.65;;;1.50;;
12968;SDS011;6549;53.128;8.182;2023-09-19T02:34:32;3.28;;;1.75;;
12968;SDS011;6549;53.128;8.182;2023-09-19T02:37:36;4.05;;;1.50;;
12968;SDS011;6549;53.128;8.182;2023-09-19T02:40:36;4.50;;;1.60;;
12968;SDS011;6549;53.128;8.182;2023-09-19T02:43:37;4.63;;;2.05;;
12968;SDS011;6549;53.128;8.182;2023-09-19T02:46:37;5.10;;;1.90;;
12968;SDS011;6549;53.128;8.182;2023-09-19T02:49:37;5.90;;;1.80;;
12968;SDS011;6549;53.128;8.182;2023-09-19T02:52:38;6.68;;;2.28;;
12968;SDS011;6549;53.128;8.182;2023-09-19T02:55:38;4.47;;;1.80;;
12968;SDS011;6549;53.128;8.182;2023-09-19T02:58:40;6.20;;;2.17;;
12968;SDS011;6549;53.128;8.182;2023-09-19T03:01:43;5.30;;;1.80;;
12968;SDS011;6549;53.128;8.182;2023-09-19T03:04:43;4.75;;;1.63;;
12968;SDS011;6549;53.128;8.182;2023-09-19T03:07:46;4.50;;;1.90;;
12968;SDS011;6549;53.128;8.182;2023-09-19T03:10:50;7.10;;;2.47;;
12968;SDS011;6549;53.128;8.182;2023-09-19T03:13:51;4.93;;;2.00;;
12968;SDS011;6549;53.128;8.182;2023-09-19T03:16:52;4.78;;;1.90;;
12968;SDS011;6549;53.128;8.182;2023-09-19T03:19:53;5.25;;;2.25;;
12968;SDS011;6549;53.128;8.182;2023-09-19T03:22:53;6.85;;;2.33;;
12968;SDS011;6549;53.128;8.182;2023-09-19T03:25:54;8.02;;;2.17;;
12968;SDS011;6549;53.128;8.182;2023-09-19T03:28:55;5.03;;;2.05;;
12968;SDS011;6549;53.128;8.182;2023-09-19T03:31:56;9.00;;;2.53;;
12968;SDS011;6549;53.128;8.182;2023-09-19T03:34:56;5.78;;;2.00;;
12968;SDS011;6549;53.128;8.182;2023-09-19T03:37:56;5.13;;;1.70;;
12968;SDS011;6549;53.128;8.182;2023-09-19T03:40:57;6.45;;;1.70;;
12968;SDS011;6549;53.128;8.182;2023-09-19T03:43:58;9.70;;;2.10;;
12968;SDS011;6549;53.128;8.182;2023-09-19T03:46:58;5.18;;;1.83;;
12968;SDS011;6549;53.128;8.182;2023-09-19T03:49:58;7.00;;;2.00;;
12968;SDS011;6549;53.128;8.182;2023-09-19T03:52:59;4.68;;;1.90;;
12968;SDS011;6549;53.128;8.182;2023-09-19T03:55:59;5.47;;;2.00;;
12968;SDS011;6549;53.128;8.182;2023-09-19T03:59:00;6.90;;;1.80;;
12968;SDS011;6549;53.128;8.182;2023-09-19T04:02:00;7.95;;;1.92;;
12968;SDS011;6549;53.128;8.182;2023-09-19T04:05:02;5.60;;;2.03;;
12968;SDS011;6549;53.128;8.182;2023-09-19T04:08:02;5.45;;;1.70;;
12968;SDS011;6549;53.128;8.182;2023-09-19T04:11:03;6.75;;;1.98;;
12968;SDS011;6549;53.128;8.182;2023-09-19T04:14:03;4.88;;;1.80;;
12968;SDS011;6549;53.128;8.182;2023-09-19T04:17:04;6.53;;;1.98;;
12968;SDS011;6549;53.128;8.182;2023-09-19T04:20:05;5.95;;;1.90;;
12968;SDS011;6549;53.128;8.182;2023-09-19T04:23:07;4.43;;;1.77;;
12968;SDS011;6549;53.128;8.182;2023-09-19T04:26:08;6.20;;;2.00;;
12968;SDS011;6549;53.128;8.182;2023-09-19T04:29:08;6.57;;;2.00;;
12968;SDS011;6549;53.128;8.182;2023-09-19T04:32:11;5.15;;;1.70;;
12968;SDS011;6549;53.128;8.182;2023-09-19T04:35:13;5.97;;;2.03;;
12968;SDS011;6549;53.128;8.182;2023-09-19T04:38:13;4.97;;;1.90;;
12968;SDS011;6549;53.128;8.182;2023-09-19T04:41:14;6.38;;;1.80;;
12968;SDS011;6549;53.128;8.182;2023-09-19T04:44:15;5.72;;;2.20;;
12968;SDS011;6549;53.128;8.182;2023-09-19T04:47:16;7.03;;;1.85;;
12968;SDS011;6549;53.128;8.182;2023-09-19T04:50:16;4.93;;;1.70;;
12968;SDS011;6549;53.128;8.182;2023-09-19T04:53:17;6.40;;;2.00;;
12968;SDS011;6549;53.128;8.182;2023-09-19T04:56:20;7.00;;;2.15;;
12968;SDS011;6549;53.128;8.182;2023-09-19T04:59:21;5.82;;;1.90;;
12968;SDS011;6549;53.128;8.182;2023-09-19T05:02:21;5.55;;;2.03;;
12968;SDS011;6549;53.128;8.182;2023-09-19T05:05:21;7.45;;;1.80;;
12968;SDS011;6549;53.128;8.182;2023-09-19T05:08:23;8.70;;;2.40;;
12968;SDS011;6549;53.128;8.182;2023-09-19T05:11:24;6.68;;;1.95;;
12968;SDS011;6549;53.128;8.182;2023-09-19T05:14:24;5.18;;;1.88;;
12968;SDS011;6549;53.128;8.182;2023-09-19T05:17:24;7.22;;;2.20;;
12968;SDS011;6549;53.128;8.182;2023-09-19T05:20:25;7.95;;;2.25;;
12968;SDS011;6549;53.128;8.182;2023-09-19T05:23:37;7.47;;;2.05;;
12968;SDS011;6549;53.128;8.182;2023-09-19T05:26:37;6.88;;;2.08;;
12968;SDS011;6549;53.128;8.182;2023-09-19T05:29:38;9.95;;;2.40;;
12968;SDS011;6549;53.128;8.182;2023-09-19T05:32:38;8.02;;;1.83;;
12968;SDS011;6549;53.128;8.182;2023-09-19T05:35:39;5.18;;;1.73;;
12968;SDS011;6549;53.128;8.182;2023-09-19T05:41:42;3.13;;;1.80;;
12968;SDS011;6549;53.128;8.182;2023-09-19T05:44:42;8.05;;;2.47;;
12968;SDS011;6549;53.128;8.182;2023-09-19T05:47:42;4.63;;;1.92;;
12968;SDS011;6549;53.128;8.182;2023-09-19T05:53:48;9.45;;;2.40;;
12968;SDS011;6549;53.128;8.182;2023-09-19T05:56:49;6.70;;;2.30;;
12968;SDS011;6549;53.128;8.182;2023-09-19T05:59:53;10.02;;;2.63;;
12968;SDS011;6549;53.128;8.182;2023-09-19T06:02:53;7.43;;;2.22;;
12968;SDS011;6549;53.128;8.182;2023-09-19T06:05:55;8.50;;;2.30;;
12968;SDS011;6549;53.128;8.182;2023-09-19T06:08:57;6.47;;;2.33;;
12968;SDS011;6549;53.128;8.182;2023-09-19T06:11:58;8.27;;;2.50;;
12968;SDS011;6549;53.128;8.182;2023-09-19T06:15:00;5.47;;;2.13;;
12968;SDS011;6549;53.128;8.182;2023-09-19T06:18:00;8.07;;;2.30;;
12968;SDS011;6549;53.128;8.182;2023-09-19T06:21:02;12.03;;;2.73;;
12968;SDS011;6549;53.128;8.182;2023-09-19T06:24:07;7.35;;;2.40;;
12968;SDS011;6549;53.128;8.182;2023-09-19T06:27:07;9.63;;;2.60;;
12968;SDS011;6549;53.128;8.182;2023-09-19T06:30:09;7.60;;;2.20;;
12968;SDS011;6549;53.128;8.182;2023-09-19T06:33:11;7.43;;;2.20;;
12968;SDS011;6549;53.128;8.182;2023-09-19T06:36:13;9.55;;;2.35;;
12968;SDS011;6549;53.128;8.182;2023-09-19T06:39:13;9.55;;;2.75;;
12968;SDS011;6549;53.128;8.182;2023-09-19T06:42:14;11.25;;;2.25;;
12968;SDS011;6549;53.128;8.182;2023-09-19T06:45:16;4.65;;;1.85;;
12968;SDS011;6549;53.128;8.182;2023-09-19T06:48:19;7.95;;;2.13;;
12968;SDS011;6549;53.128;8.182;2023-09-19T06:51:21;9.27;;;2.40;;
12968;SDS011;6549;53.128;8.182;2023-09-19T06:54:21;6.70;;;2.10;;
12968;SDS011;6549;53.128;8.182;2023-09-19T06:57:21;8.18;;;2.17;;
12968;SDS011;6549;53.128;8.182;2023-09-19T07:00:22;9.38;;;2.38;;
12968;SDS011;6549;53.128;8.182;2023-09-19T07:03:23;8.20;;;2.10;;
12968;SDS011;6549;53.128;8.182;2023-09-19T07:06:26;8.50;;;2.38;;
12968;SDS011;6549;53.128;8.182;2023-09-19T07:09:26;10.10;;;2.53;;
12968;SDS011;6549;53.128;8.182;2023-09-19T07:12:27;12.32;;;2.70;;
12968;SDS011;6549;53.128;8.182;2023-09-19T07:15:28;11.05;;;2.45;;
12968;SDS011;6549;53.128;8.182;2023-09-19T07:21:31;9.10;;;2.28;;
12968;SDS011;6549;53.128;8.182;2023-09-19T07:24:35;10.18;;;2.40;;
12968;SDS011;6549;53.128;8.182;2023-09-19T07:27:36;8.20;;;2.25;;
12968;SDS011;6549;53.128;8.182;2023-09-19T07:30:37;7.85;;;2.25;;
12968;SDS011;6549;53.128;8.182;2023-09-19T07:33:37;9.30;;;2.55;;
12968;SDS011;6549;53.128;8.182;2023-09-19T07:36:37;7.18;;;2.08;;
12968;SDS011;6549;53.128;8.182;2023-09-19T07:39:39;10.30;;;2.28;;
12968;SDS011;6549;53.128;8.182;2023-09-19T07:42:41;5.93;;;1.67;;
12968;SDS011;6549;53.128;8.182;2023-09-19T07:45:44;9.35;;;2.13;;
12968;SDS011;6549;53.128;8.182;2023-09-19T07:48:44;7.18;;;2.22;;
12968;SDS011;6549;53.128;8.182;2023-09-19T07:51:48;10.48;;;2.30;;
12968;SDS011;6549;53.128;8.182;2023-09-19T07:54:49;8.90;;;2.20;;
12968;SDS011;6549;53.128;8.182;2023-09-19T07:57:49;10.93;;;2.33;;
12968;SDS011;6549;53.128;8.182;2023-09-19T08:00:49;8.20;;;2.22;;
12968;SDS011;6549;53.128;8.182;2023-09-19T08:03:50;8.18;;;2.35;;
12968;SDS011;6549;53.128;8.182;2023-09-19T08:06:50;9.38;;;2.40;;
12968;SDS011;6549;53.128;8.182;2023-09-19T08:09:52;6.50;;;2.30;;
12968;SDS011;6549;53.128;8.182;2023-09-19T08:12:52;10.23;;;2.10;;
12968;SDS011;6549;53.128;8.182;2023-09-19T08:15:57;7.93;;;2.10;;
12968;SDS011;6549;53.128;8.182;2023-09-19T08:18:58;6.60;;;1.90;;
12968;SDS011;6549;53.128;8.182;2023-09-19T08:21:58;8.73;;;2.70;;
12968;SDS011;6549;53.128;8.182;2023-09-19T08:24:59;6.45;;;1.95;;
12968;SDS011;6549;53.128;8.182;2023-09-19T08:27:59;8.63;;;1.88;;
12968;SDS011;6549;53.128;8.182;2023-09-19T08:31:04;8.13;;;1.90;;
12968;SDS011;6549;53.128;8.182;2023-09-19T08:34:05;8.38;;;2.13;;
12968;SDS011;6549;53.128;8.182;2023-09-19T08:37:06;7.35;;;2.25;;
12968;SDS011;6549;53.128;8.182;2023-09-19T08:40:07;7.93;;;2.30;;
12968;SDS011;6549;53.128;8.182;2023-09-19T08:43:10;7.85;;;2.10;;
12968;SDS011;6549;53.128;8.182;2023-09-19T08:46:12;7.88;;;1.90;;
12968;SDS011;6549;53.128;8.182;2023-09-19T08:49:28;10.57;;;2.00;;
12968;SDS011;6549;53.128;8.182;2023-09-19T08:52:37;9.77;;;2.15;;
12968;SDS011;6549;53.128;8.182;2023-09-19T08:55:42;7.10;;;2.10;;
12968;SDS011;6549;53.128;8.182;2023-09-19T09:02:12;11.25;;;2.35;;
12968;SDS011;6549;53.128;8.182;2023-09-19T09:05:14;7.25;;;2.17;;
12968;SDS011;6549;53.128;8.182;2023-09-19T09:08:16;11.48;;;2.47;;
12968;SDS011;6549;53.128;8.182;2023-09-19T09:11:20;7.25;;;2.00;;
12968;SDS011;6549;53.128;8.182;2023-09-19T09:14:21;8.95;;;2.00;;
12968;SDS011;6549;53.128;8.182;2023-09-19T09:17:22;6.95;;;1.65;;
12968;SDS011;6549;53.128;8.182;2023-09-19T09:20:22;9.15;;;2.17;;
12968;SDS011;6549;53.128;8.182;2023-09-19T09:23:22;9.00;;;2.20;;
12968;SDS011;6549;53.128;8.182;2023-09-19T09:32:46;8.52;;;2.00;;
12968;SDS011;6549;53.128;8.182;2023-09-19T09:35:51;9.10;;;2.00;;
12968;SDS011;6549;53.128;8.182;2023-09-19T09:38:53;7.63;;;2.22;;
12968;SDS011;6549;53.128;8.182;2023-09-19T09:41:55;7.63;;;2.03;;
12968;SDS011;6549;53.128;8.182;2023-09-19T09:45:12;7.85;;;1.90;;
12968;SDS011;6549;53.128;8.182;2023-09-19T09:48:24;7.00;;;2.15;;
12968;SDS011;6549;53.128;8.182;2023-09-19T09:51:31;10.18;;;2.13;;
12968;SDS011;6549;53.128;8.182;2023-09-19T09:54:33;8.60;;;2.45;;
12968;SDS011;6549;53.128;8.182;2023-09-19T09:57:38;8.38;;;2.10;;
12968;SDS011;6549;53.128;8.182;2023-09-19T10:00:51;6.93;;;1.88;;
12968;SDS011;6549;53.128;8.182;2023-09-19T10:03:57;8.20;;;2.10;;
12968;SDS011;6549;53.128;8.182;2023-09-19T10:06:58;8.48;;;2.08;;
12968;SDS011;6549;53.128;8.182;2023-09-19T10:10:05;10.90;;;2.30;;
12968;SDS011;6549;53.128;8.182;2023-09-19T10:13:12;11.10;;;2.33;;
12968;SDS011;6549;53.128;8.182;2023-09-19T10:16:15;10.90;;;2.85;;
12968;SDS011;6549;53.128;8.182;2023-09-19T10:19:23;12.75;;;2.70;;
12968;SDS011;6549;53.128;8.182;2023-09-19T10:22:30;8.68;;;2.63;;
12968;SDS011;6549;53.128;8.182;2023-09-19T10:25:32;11.60;;;2.60;;
12968;SDS011;6549;53.128;8.182;2023-09-19T10:28:32;14.05;;;2.55;;
12968;SDS011;6549;53.128;8.182;2023-09-19T10:34:36;8.60;;;2.38;;
12968;SDS011;6549;53.128;8.182;2023-09-19T10:37:37;9.73;;;2.20;;
12968;SDS011;6549;53.128;8.182;2023-09-19T10:40:39;8.30;;;2.23;;
12968;SDS011;6549;53.128;8.182;2023-09-19T10:43:43;9.30;;;2.33;;
12968;SDS011;6549;53.128;8.182;2023-09-19T10:46:48;14.93;;;2.67;;
12968;SDS011;6549;53.128;8.182;2023-09-19T10:49:48;11.07;;;2.72;;
12968;SDS011;6549;53.128;8.182;2023-09-19T10:52:49;10.48;;;2.17;;
12968;SDS011;6549;53.128;8.182;2023-09-19T10:55:58;8.45;;;2.08;;
12968;SDS011;6549;53.128;8.182;2023-09-19T10:59:09;8.10;;;2.45;;
12968;SDS011;6549;53.128;8.182;2023-09-19T11:02:16;8.93;;;2.22;;
12968;SDS011;6549;53.128;8.182;2023-09-19T11:05:17;6.45;;;1.98;;
12968;SDS011;6549;53.128;8.182;2023-09-19T11:08:18;8.18;;;1.98;;
12968;SDS011;6549;53.128;8.182;2023-09-19T11:14:39;9.45;;;2.33;;
12968;SDS011;6549;53.128;8.182;2023-09-19T11:17:41;7.95;;;2.38;;
12968;SDS011;6549;53.128;8.182;2023-09-19T11:20:42;12.30;;;2.42;;
12968;SDS011;6549;53.128;8.182;2023-09-19T11:23:43;7.95;;;2.35;;
12968;SDS011;6549;53.128;8.182;2023-09-19T11:27:25;10.27;;;2.30;;
12968;SDS011;6549;53.128;8.182;2023-09-19T11:30:26;10.27;;;2.83;;
12968;SDS011;6549;53.128;8.182;2023-09-19T11:33:28;9.27;;;2.47;;
12968;SDS011;6549;53.128;8.182;2023-09-19T11:36:38;7.00;;;2.33;;
12968;SDS011;6549;53.128;8.182;2023-09-19T11:39:40;8.75;;;2.42;;
12968;SDS011;6549;53.128;8.182;2023-09-19T11:43:00;8.18;;;2.22;;
12968;SDS011;6549;53.128;8.182;2023-09-19T11:46:31;10.13;;;2.38;;
12968;SDS011;6549;53.128;8.182;2023-09-19T11:52:33;8.75;;;2.53;;
12968;SDS011;6549;53.128;8.182;2023-09-19T11:55:39;12.13;;;2.92;;
12968;SDS011;6549;53.128;8.182;2023-09-19T11:58:46;5.78;;;1.80;;
12968;SDS011;6549;53.128;8.182;2023-09-19T12:01:52;7.53;;;2.40;;
12968;SDS011;6549;53.128;8.182;2023-09-19T12:04:59;8.65;;;2.33;;
12968;SDS011;6549;53.128;8.182;2023-09-19T12:08:00;9.05;;;2.38;;
12968;SDS011;6549;53.128;8.182;2023-09-19T12:11:01;9.02;;;2.33;;
12968;SDS011;6549;53.128;8.182;2023-09-19T12:14:02;8.93;;;2.45;;
12968;SDS011;6549;53.128;8.182;2023-09-19T12:17:03;7.40;;;2.15;;
12968;SDS011;6549;53.128;8.182;2023-09-19T12:20:04;10.57;;;2.88;;
12968;SDS011;6549;53.128;8.182;2023-09-19T12:23:14;8.55;;;2.22;;
12968;SDS011;6549;53.128;8.182;2023-09-19T12:26:15;8.25;;;2.20;;
12968;SDS011;6549;53.128;8.182;2023-09-19T12:29:16;9.20;;;2.17;;
12968;SDS011;6549;53.128;8.182;2023-09-19T12:32:17;8.38;;;2.13;;
12968;SDS011;6549;53.128;8.182;2023-09-19T12:35:31;8.00;;;2.00;;
12968;SDS011;6549;53.128;8.182;2023-09-19T12:38:34;7.32;;;2.00;;
12968;SDS011;6549;53.128;8.182;2023-09-19T12:41:35;9.65;;;2.42;;
12968;SDS011;6549;53.128;8.182;2023-09-19T12:44:38;8.48;;;2.30;;
12968;SDS011;6549;53.128;8.182;2023-09-19T12:51:20;9.07;;;2.53;;
12968;SDS011;6549;53.128;8.182;2023-09-19T12:54:24;9.00;;;2.13;;
12968;SDS011;6549;53.128;8.182;2023-09-19T12:57:25;9.50;;;2.20;;
12968;SDS011;6549;53.128;8.182;2023-09-19T13:00:35;8.90;;;2.28;;
12968;SDS011;6549;53.128;8.182;2023-09-19T13:03:38;10.52;;;2.22;;
12968;SDS011;6549;53.128;8.182;2023-09-19T13:06:39;7.10;;;2.17;;
12968;SDS011;6549;53.128;8.182;2023-09-19T13:09:40;6.05;;;2.15;;
12968;SDS011;6549;53.128;8.182;2023-09-19T13:13:22;9.20;;;2.33;;
12968;SDS011;6549;53.128;8.182;2023-09-19T13:16:25;10.18;;;2.25;;
12968;SDS011;6549;53.128;8.182;2023-09-19T13:19:44;8.88;;;2.25;;
12968;SDS011;6549;53.128;8.182;2023-09-19T13:22:49;8.90;;;1.90;;
12968;SDS011;6549;53.128;8.182;2023-09-19T13:25:53;8.73;;;1.95;;
12968;SDS011;6549;53.128;8.182;2023-09-19T13:28:54;6.03;;;1.90;;
12968;SDS011;6549;53.128;8.182;2023-09-19T13:31:55;8.00;;;2.17;;
12968;SDS011;6549;53.128;8.182;2023-09-19T13:34:55;8.63;;;2.00;;
12968;SDS011;6549;53.128;8.182;2023-09-19T13:37:55;7.65;;;2.00;;
12968;SDS011;6549;53.128;8.182;2023-09-19T13:40:55;6.30;;;1.67;;
12968;SDS011;6549;53.128;8.182;2023-09-19T13:43:56;7.30;;;1.92;;
12968;SDS011;6549;53.128;8.182;2023-09-19T13:46:57;7.60;;;2.20;;
12968;SDS011;6549;53.128;8.182;2023-09-19T13:49:57;6.68;;;2.00;;
12968;SDS011;6549;53.128;8.182;2023-09-19T13:52:57;7.65;;;2.08;;
12968;SDS011;6549;53.128;8.182;2023-09-19T13:56:00;7.57;;;2.03;;
12968;SDS011;6549;53.128;8.182;2023-09-19T13:59:00;5.32;;;1.70;;
12968;SDS011;6549;53.128;8.182;2023-09-19T14:02:01;6.75;;;2.08;;
12968;SDS011;6549;53.128;8.182;2023-09-19T14:05:03;8.02;;;2.20;;
12968;SDS011;6549;53.128;8.182;2023-09-19T14:08:04;7.20;;;1.92;;
12968;SDS011;6549;53.128;8.182;2023-09-19T14:11:08;7.95;;;2.13;;
12968;SDS011;6549;53.128;8.182;2023-09-19T14:14:08;6.78;;;1.95;;
12968;SDS011;6549;53.128;8.182;2023-09-19T14:17:09;10.35;;;2.33;;
12968;SDS011;6549;53.128;8.182;2023-09-19T14:20:10;6.72;;;1.75;;
12968;SDS011;6549;53.128;8.182;2023-09-19T14:23:10;8.43;;;1.83;;
12968;SDS011;6549;53.128;8.182;2023-09-19T14:26:10;10.00;;;1.98;;
12968;SDS011;6549;53.128;8.182;2023-09-19T14:29:11;7.00;;;2.22;;
12968;SDS011;6549;53.128;8.182;2023-09-19T14:32:11;9.48;;;1.92;;
12968;SDS011;6549;53.128;8.182;2023-09-19T14:35:12;9.30;;;2.20;;
12968;SDS011;6549;53.128;8.182;2023-09-19T14:38:14;8.00;;;1.85;;
12968;SDS011;6549;53.128;8.182;2023-09-19T14:41:14;7.35;;;2.20;;
12968;SDS011;6549;53.128;8.182;2023-09-19T14:44:14;10.40;;;2.22;;
12968;SDS011;6549;53.128;8.182;2023-09-19T14:47:16;7.13;;;2.08;;
12968;SDS011;6549;53.128;8.182;2023-09-19T14:50:16;6.18;;;2.15;;
12968;SDS011;6549;53.128;8.182;2023-09-19T14:53:17;7.22;;;2.03;;
12968;SDS011;6549;53.128;8.182;2023-09-19T14:56:17;8.38;;;2.00;;
12968;SDS011;6549;53.128;8.182;2023-09-19T14:59:18;6.85;;;2.00;;
12968;SDS011;6549;53.128;8.182;2023-09-19T15:02:20;8.53;;;1.83;;
12968;SDS011;6549;53.128;8.182;2023-09-19T15:05:20;11.07;;;2.30;;
12968;SDS011;6549;53.128;8.182;2023-09-19T15:08:21;7.00;;;2.05;;
12968;SDS011;6549;53.128;8.182;2023-09-19T15:11:23;6.38;;;1.90;;
12968;SDS011;6549;53.128;8.182;2023-09-19T15:14:23;6.57;;;1.80;;
12968;SDS011;6549;53.128;8.182;2023-09-19T15:17:25;6.22;;;1.85;;
12968;SDS011;6549;53.128;8.182;2023-09-19T15:20:25;6.63;;;1.55;;
12968;SDS011;6549;53.128;8.182;2023-09-19T15:23:26;5.35;;;1.48;;
12968;SDS011;6549;53.128;8.182;2023-09-19T15:26:26;5.07;;;1.30;;
12968;SDS011;6549;53.128;8.182;2023-09-19T15:29:27;6.63;;;1.90;;
12968;SDS011;6549;53.128;8.182;2023-09-19T15:32:27;4.43;;;1.50;;
12968;SDS011;6549;53.128;8.182;2023-09-19T15:35:28;7.38;;;1.90;;
12968;SDS011;6549;53.128;8.182;2023-09-19T15:38:28;6.78;;;2.13;;
12968;SDS011;6549;53.128;8.182;2023-09-19T15:41:30;6.65;;;1.80;;
12968;SDS011;6549;53.128;8.182;2023-09-19T15:44:32;6.07;;;1.90;;
12968;SDS011;6549;53.128;8.182;2023-09-19T15:47:32;7.88;;;1.70;;
12968;SDS011;6549;53.128;8.182;2023-09-19T15:50:34;5.60;;;1.60;;
12968;SDS011;6549;53.128;8.182;2023-09-19T15:53:41;5.80;;;1.92;;
12968;SDS011;6549;53.128;8.182;2023-09-19T15:56:45;7.40;;;2.25;;
12968;SDS011;6549;53.128;8.182;2023-09-19T15:59:46;8.93;;;1.73;;
12968;SDS011;6549;53.128;8.182;2023-09-19T16:02:47;6.45;;;1.90;;
12968;SDS011;6549;53.128;8.182;2023-09-19T16:08:50;6.33;;;1.77;;
12968;SDS011;6549;53.128;8.182;2023-09-19T16:11:51;6.72;;;1.60;;
12968;SDS011;6549;53.128;8.182;2023-09-19T16:14:52;5.05;;;1.73;;
12968;SDS011;6549;53.128;8.182;2023-09-19T16:17:52;4.30;;;1.55;;
12968;SDS011;6549;53.128;8.182;2023-09-19T16:20:52;7.07;;;1.70;;
12968;SDS011;6549;53.128;8.182;2023-09-19T16:23:53;7.13;;;1.52;;
12968;SDS011;6549;53.128;8.182;2023-09-19T16:26:54;4.82;;;1.60;;
12968;SDS011;6549;53.128;8.182;2023-09-19T16:29:54;7.78;;;1.90;;
12968;SDS011;6549;53.128;8.182;2023-09-19T16:32:55;5.18;;;1.67;;
12968;SDS011;6549;53.128;8.182;2023-09-19T16:35:55;3.22;;;1.40;;
12968;SDS011;6549;53.128;8.182;2023-09-19T16:38:56;7.93;;;1.80;;
12968;SDS011;6549;53.128;8.182;2023-09-19T16:41:56;4.90;;;1.75;;
12968;SDS011;6549;53.128;8.182;2023-09-19T16:44:56;5.03;;;1.58;;
12968;SDS011;6549;53.128;8.182;2023-09-19T16:47:57;7.25;;;1.52;;
12968;SDS011;6549;53.128;8.182;2023-09-19T16:51:01;4.47;;;1.73;;
12968;SDS011;6549;53.128;8.182;2023-09-19T16:54:03;6.75;;;1.73;;
12968;SDS011;6549;53.128;8.182;2023-09-19T16:57:04;4.30;;;1.60;;
12968;SDS011;6549;53.128;8.182;2023-09-19T17:00:04;6.90;;;1.75;;
12968;SDS011;6549;53.128;8.182;2023-09-19T17:03:05;4.07;;;1.35;;
12968;SDS011;6549;53.128;8.182;2023-09-19T17:06:09;4.75;;;1.40;;
12968;SDS011;6549;53.128;8.182;2023-09-19T17:09:12;4.97;;;1.50;;
12968;SDS011;6549;53.128;8.182;2023-09-19T17:12:12;5.20;;;1.70;;
12968;SDS011;6549;53.128;8.182;2023-09-19T17:15:14;5.60;;;1.40;;
12968;SDS011;6549;53.128;8.182;2023-09-19T17:18:14;5.05;;;1.50;;
12968;SDS011;6549;53.128;8.182;2023-09-19T17:21:15;4.57;;;1.60;;
12968;SDS011;6549;53.128;8.182;2023-09-19T17:24:16;6.57;;;1.75;;
12968;SDS011;6549;53.128;8.182;2023-09-19T17:27:16;4.93;;;1.38;;
12968;SDS011;6549;53.128;8.182;2023-09-19T17:30:18;5.85;;;1.80;;
12968;SDS011;6549;53.128;8.182;2023-09-19T17:33:18;5.90;;;1.83;;
12968;SDS011;6549;53.128;8.182;2023-09-19T17:36:22;4.82;;;1.70;;
12968;SDS011;6549;53.128;8.182;2023-09-19T17:39:23;3.63;;;1.23;;
12968;SDS011;6549;53.128;8.182;2023-09-19T17:42:24;4.78;;;1.30;;
12968;SDS011;6549;53.128;8.182;2023-09-19T17:45:24;6.47;;;1.52;;
12968;SDS011;6549;53.128;8.182;2023-09-19T17:48:24;5.60;;;1.50;;
12968;SDS011;6549;53.128;8.182;2023-09-19T17:51:25;4.35;;;1.30;;
12968;SDS011;6549;53.128;8.182;2023-09-19T17:54:26;5.70;;;1.50;;
12968;SDS011;6549;53.128;8.182;2023-09-19T17:57:26;4.97;;;1.50;;
12968;SDS011;6549;53.128;8.182;2023-09-19T18:00:27;5.63;;;1.60;;
12968;SDS011;6549;53.128;8.182;2023-09-19T18:03:27;4.63;;;1.38;;
12968;SDS011;6549;53.128;8.182;2023-09-19T18:06:28;2.75;;;1.30;;
12968;SDS011;6549;53.128;8.182;2023-09-19T18:12:31;4.70;;;1.27;;
12968;SDS011;6549;53.128;8.182;2023-09-19T18:15:32;5.22;;;1.52;;
12968;SDS011;6549;53.128;8.182;2023-09-19T18:18:37;4.45;;;1.30;;
12968;SDS011;6549;53.128;8.182;2023-09-19T18:21:38;4.97;;;1.30;;
12968;SDS011;6549;53.128;8.182;2023-09-19T18:24:38;5.88;;;1.42;;
12968;SDS011;6549;53.128;8.182;2023-09-19T18:27:39;4.55;;;1.50;;
12968;SDS011;6549;53.128;8.182;2023-09-19T18:30:41;4.43;;;1.30;;
12968;SDS011;6549;53.128;8.182;2023-09-19T18:33:41;4.40;;;1.33;;
12968;SDS011;6549;53.128;8.182;2023-09-19T18:36:41;3.05;;;1.33;;
12968;SDS011;6549;53.128;8.182;2023-09-19T18:39:42;6.13;;;1.52;;
12968;SDS011;6549;53.128;8.182;2023-09-19T18:42:42;7.93;;;1.50;;
12968;SDS011;6549;53.128;8.182;2023-09-19T18:45:42;3.42;;;1.45;;
12968;SDS011;6549;53.128;8.182;2023-09-19T18:48:44;5.40;;;1.40;;
12968;SDS011;6549;53.128;8.182;2023-09-19T18:51:44;4.32;;;1.42;;
12968;SDS011;6549;53.128;8.182;2023-09-19T18:54:45;4.65;;;1.40;;
12968;SDS011;6549;53.128;8.182;2023-09-19T18:57:45;3.20;;;1.40;;
12968;SDS011;6549;53.128;8.182;2023-09-19T19:00:46;5.20;;;1.27;;
12968;SDS011;6549;53.128;8.182;2023-09-19T19:03:46;4.25;;;1.40;;
12968;SDS011;6549;53.128;8.182;2023-09-19T19:06:48;4.22;;;1.20;;
12968;SDS011;6549;53.128;8.182;2023-09-19T19:09:49;5.60;;;1.60;;
12968;SDS011;6549;53.128;8.182;2023-09-19T19:12:49;3.47;;;1.38;;
12968;SDS011;6549;53.128;8.182;2023-09-19T19:15:49;7.00;;;1.40;;
12968;SDS011;6549;53.128;8.182;2023-09-19T19:18:50;4.80;;;1.80;;
12968;SDS011;6549;53.128;8.182;2023-09-19T19:21:52;4.30;;;1.40;;
12968;SDS011;6549;53.128;8.182;2023-09-19T19:24:53;2.95;;;1.50;;